sensor_id;sensor_type;location;lat;lon;timestamp;pressure;altitude;pressure_sealevel;temperature;humidity
30708;BME280;17458;48.958;8.284;2022-12-10T00:01:15;99244.28;;;5.28;69.67
30708;BME280;17458;48.958;8.284;2022-12-10T00:04:00;99250.22;;;5.08;69.73
30708;BME280;17458;48.958;8.284;2022-12-10T00:06:44;99252.19;;;5.45;69.09
30708;BME280;17458;48.958;8.284;2022-12-10T00:09:28;99251.94;;;5.08;69.66
30708;BME280;17458;48.958;8.284;2022-12-10T00:12:13;99256.81;;;5.32;69.31
30708;BME280;17458;48.958;8.284;2022-12-10T00:14:56;99254.41;;;5.21;69.56
30708;BME280;17458;48.958;8.284;2022-12-10T00:17:40;99250.06;;;5.05;70.22
30708;BME280;17458;48.958;8.284;2022-12-10T00:20:25;99257.94;;;4.73;70.67
30708;BME280;17458;48.958;8.284;2022-12-10T00:23:09;99251.53;;;5.00;69.56
30708;BME280;17458;48.958;8.284;2022-12-10T00:25:53;99268.31;;;4.86;69.53
30708;BME280;17458;48.958;8.284;2022-12-10T00:28:38;99263.78;;;4.99;70.55
30708;BME280;17458;48.958;8.284;2022-12-10T00:31:27;99265.03;;;4.90;70.05
30708;BME280;17458;48.958;8.284;2022-12-10T00:34:12;99260.31;;;4.84;70.94
30708;BME280;17458;48.958;8.284;2022-12-10T00:36:56;99257.47;;;5.12;69.08
30708;BME280;17458;48.958;8.284;2022-12-10T00:39:40;99256.06;;;5.19;68.94
30708;BME280;17458;48.958;8.284;2022-12-10T00:42:24;99260.66;;;5.39;68.50
30708;BME280;17458;48.958;8.284;2022-12-10T00:45:10;99265.44;;;5.14;69.20
30708;BME280;17458;48.958;8.284;2022-12-10T00:47:54;99255.72;;;5.29;68.35
30708;BME280;17458;48.958;8.284;2022-12-10T00:50:41;99269.06;;;4.99;69.21
30708;BME280;17458;48.958;8.284;2022-12-10T00:53:27;99258.44;;;5.14;68.93
30708;BME280;17458;48.958;8.284;2022-12-10T00:56:14;99256.28;;;5.07;69.56
30708;BME280;17458;48.958;8.284;2022-12-10T00:59:00;99267.41;;;5.02;69.76
30708;BME280;17458;48.958;8.284;2022-12-10T01:01:45;99269.88;;;4.98;69.24
30708;BME280;17458;48.958;8.284;2022-12-10T01:04:29;99264.06;;;5.04;70.23
30708;BME280;17458;48.958;8.284;2022-12-10T01:07:13;99274.56;;;4.88;69.92
30708;BME280;17458;48.958;8.284;2022-12-10T01:09:57;99279.34;;;5.27;69.09
30708;BME280;17458;48.958;8.284;2022-12-10T01:12:41;99282.41;;;5.19;68.93
30708;BME280;17458;48.958;8.284;2022-12-10T01:15:26;99289.88;;;5.27;68.94
30708;BME280;17458;48.958;8.284;2022-12-10T01:18:10;99289.09;;;4.97;69.15
30708;BME280;17458;48.958;8.284;2022-12-10T01:21:00;99293.16;;;5.23;69.47
30708;BME280;17458;48.958;8.284;2022-12-10T01:23:47;99286.22;;;5.42;68.13
30708;BME280;17458;48.958;8.284;2022-12-10T01:26:34;99295.50;;;5.51;68.03
30708;BME280;17458;48.958;8.284;2022-12-10T01:29:19;99294.84;;;5.72;67.12
30708;BME280;17458;48.958;8.284;2022-12-10T01:32:03;99296.72;;;5.74;67.62
30708;BME280;17458;48.958;8.284;2022-12-10T01:34:47;99291.50;;;5.58;67.10
30708;BME280;17458;48.958;8.284;2022-12-10T01:37:31;99304.50;;;5.39;67.77
30708;BME280;17458;48.958;8.284;2022-12-10T01:40:20;99299.88;;;5.34;68.26
30708;BME280;17458;48.958;8.284;2022-12-10T01:43:04;99298.41;;;5.23;68.47
30708;BME280;17458;48.958;8.284;2022-12-10T01:45:48;99297.25;;;5.34;67.97
30708;BME280;17458;48.958;8.284;2022-12-10T01:48:32;99306.81;;;4.69;69.91
30708;BME280;17458;48.958;8.284;2022-12-10T01:51:17;99301.50;;;4.84;70.52
30708;BME280;17458;48.958;8.284;2022-12-10T01:54:05;99313.03;;;5.02;69.46
30708;BME280;17458;48.958;8.284;2022-12-10T01:57:00;99306.91;;;5.18;68.70
30708;BME280;17458;48.958;8.284;2022-12-10T01:59:53;99313.53;;;5.11;69.49
30708;BME280;17458;48.958;8.284;2022-12-10T02:02:52;99308.19;;;5.10;69.19
30708;BME280;17458;48.958;8.284;2022-12-10T02:05:55;99307.56;;;5.30;68.75
30708;BME280;17458;48.958;8.284;2022-12-10T02:08:50;99303.75;;;5.41;68.50
30708;BME280;17458;48.958;8.284;2022-12-10T02:11:46;99305.31;;;5.21;69.01
30708;BME280;17458;48.958;8.284;2022-12-10T02:14:59;99297.84;;;5.29;68.63
30708;BME280;17458;48.958;8.284;2022-12-10T02:17:49;99299.38;;;5.09;69.38
30708;BME280;17458;48.958;8.284;2022-12-10T02:20:39;99297.94;;;5.30;68.73
30708;BME280;17458;48.958;8.284;2022-12-10T02:23:32;99290.19;;;5.17;68.66
30708;BME280;17458;48.958;8.284;2022-12-10T02:26:27;99292.81;;;5.01;68.78
30708;BME280;17458;48.958;8.284;2022-12-10T02:29:19;99293.81;;;5.03;68.73
30708;BME280;17458;48.958;8.284;2022-12-10T02:32:07;99289.22;;;5.15;68.95
30708;BME280;17458;48.958;8.284;2022-12-10T02:34:56;99283.75;;;4.96;69.04
30708;BME280;17458;48.958;8.284;2022-12-10T02:38:01;99283.84;;;5.14;69.55
30708;BME280;17458;48.958;8.284;2022-12-10T02:40:52;99286.91;;;5.05;69.18
30708;BME280;17458;48.958;8.284;2022-12-10T02:43:39;99281.31;;;4.99;69.33
30708;BME280;17458;48.958;8.284;2022-12-10T02:46:25;99281.78;;;5.08;69.38
30708;BME280;17458;48.958;8.284;2022-12-10T02:49:14;99277.84;;;4.53;70.13
30708;BME280;17458;48.958;8.284;2022-12-10T02:52:07;99282.13;;;4.98;69.78
30708;BME280;17458;48.958;8.284;2022-12-10T02:54:52;99286.69;;;4.70;69.92
30708;BME280;17458;48.958;8.284;2022-12-10T03:04:22;99293.63;;;4.84;69.89
30708;BME280;17458;48.958;8.284;2022-12-10T03:07:11;99292.06;;;4.87;70.18
30708;BME280;17458;48.958;8.284;2022-12-10T03:10:02;99296.91;;;4.96;69.69
30708;BME280;17458;48.958;8.284;2022-12-10T03:12:55;99303.75;;;5.09;69.02
30708;BME280;17458;48.958;8.284;2022-12-10T03:15:42;99306.31;;;4.91;70.58
30708;BME280;17458;48.958;8.284;2022-12-10T03:18:30;99305.31;;;4.89;70.22
30708;BME280;17458;48.958;8.284;2022-12-10T03:21:16;99299.16;;;5.05;69.58
30708;BME280;17458;48.958;8.284;2022-12-10T03:24:02;99293.28;;;4.94;69.65
30708;BME280;17458;48.958;8.284;2022-12-10T03:26:48;99294.69;;;4.87;70.12
30708;BME280;17458;48.958;8.284;2022-12-10T03:29:37;99306.22;;;4.89;69.35
30708;BME280;17458;48.958;8.284;2022-12-10T03:32:25;99302.69;;;4.58;70.65
30708;BME280;17458;48.958;8.284;2022-12-10T03:35:10;99301.72;;;5.03;69.65
30708;BME280;17458;48.958;8.284;2022-12-10T03:37:56;99306.75;;;4.53;71.24
30708;BME280;17458;48.958;8.284;2022-12-10T03:40:40;99312.75;;;4.50;71.12
30708;BME280;17458;48.958;8.284;2022-12-10T03:43:24;99310.31;;;4.53;70.80
30708;BME280;17458;48.958;8.284;2022-12-10T03:46:08;99318.41;;;4.42;71.30
30708;BME280;17458;48.958;8.284;2022-12-10T03:48:52;99311.00;;;4.66;71.20
30708;BME280;17458;48.958;8.284;2022-12-10T03:51:37;99304.72;;;4.47;71.22
30708;BME280;17458;48.958;8.284;2022-12-10T03:54:21;99308.16;;;4.46;71.71
30708;BME280;17458;48.958;8.284;2022-12-10T03:57:05;99314.03;;;4.57;70.61
30708;BME280;17458;48.958;8.284;2022-12-10T03:59:49;99316.69;;;4.73;70.55
30708;BME280;17458;48.958;8.284;2022-12-10T04:02:33;99317.06;;;4.95;69.55
30708;BME280;17458;48.958;8.284;2022-12-10T04:05:16;99311.56;;;4.91;69.92
30708;BME280;17458;48.958;8.284;2022-12-10T04:08:00;99327.13;;;4.72;70.28
30708;BME280;17458;48.958;8.284;2022-12-10T04:10:45;99323.94;;;4.93;69.80
30708;BME280;17458;48.958;8.284;2022-12-10T04:13:31;99326.97;;;4.54;71.17
30708;BME280;17458;48.958;8.284;2022-12-10T04:16:34;99320.50;;;4.47;71.28
30708;BME280;17458;48.958;8.284;2022-12-10T04:19:19;99319.66;;;4.79;70.44
30708;BME280;17458;48.958;8.284;2022-12-10T04:22:03;99320.59;;;4.65;69.90
30708;BME280;17458;48.958;8.284;2022-12-10T04:25:13;99327.41;;;4.76;70.67
30708;BME280;17458;48.958;8.284;2022-12-10T04:28:16;99323.09;;;4.62;70.81
30708;BME280;17458;48.958;8.284;2022-12-10T04:31:00;99323.66;;;4.42;70.64
30708;BME280;17458;48.958;8.284;2022-12-10T04:33:43;99318.31;;;4.40;70.90
30708;BME280;17458;48.958;8.284;2022-12-10T04:36:28;99319.72;;;4.19;71.97
30708;BME280;17458;48.958;8.284;2022-12-10T04:39:12;99322.25;;;4.32;71.44
30708;BME280;17458;48.958;8.284;2022-12-10T04:41:58;99329.66;;;4.24;71.67
30708;BME280;17458;48.958;8.284;2022-12-10T04:44:44;99320.81;;;4.53;71.00
30708;BME280;17458;48.958;8.284;2022-12-10T04:47:28;99330.84;;;4.30;70.54
30708;BME280;17458;48.958;8.284;2022-12-10T04:50:12;99318.53;;;3.99;72.49
30708;BME280;17458;48.958;8.284;2022-12-10T04:52:56;99319.00;;;4.07;72.35
30708;BME280;17458;48.958;8.284;2022-12-10T04:55:40;99311.56;;;4.00;72.12
30708;BME280;17458;48.958;8.284;2022-12-10T04:58:24;99310.38;;;4.09;71.58
30708;BME280;17458;48.958;8.284;2022-12-10T05:01:15;99317.09;;;3.89;72.24
30708;BME280;17458;48.958;8.284;2022-12-10T05:04:01;99322.06;;;3.85;72.89
30708;BME280;17458;48.958;8.284;2022-12-10T05:06:47;99325.97;;;3.91;72.21
30708;BME280;17458;48.958;8.284;2022-12-10T05:09:32;99319.88;;;4.07;72.13
30708;BME280;17458;48.958;8.284;2022-12-10T05:12:15;99332.38;;;3.67;73.51
30708;BME280;17458;48.958;8.284;2022-12-10T05:14:59;99329.13;;;4.15;72.02
30708;BME280;17458;48.958;8.284;2022-12-10T05:17:43;99334.72;;;4.21;72.32
30708;BME280;17458;48.958;8.284;2022-12-10T05:20:27;99342.00;;;4.11;71.55
30708;BME280;17458;48.958;8.284;2022-12-10T05:23:11;99339.56;;;3.99;72.14
30708;BME280;17458;48.958;8.284;2022-12-10T05:26:19;99349.44;;;4.33;70.99
30708;BME280;17458;48.958;8.284;2022-12-10T05:29:04;99337.41;;;4.07;71.89
30708;BME280;17458;48.958;8.284;2022-12-10T05:31:48;99347.44;;;4.14;72.51
30708;BME280;17458;48.958;8.284;2022-12-10T05:34:32;99342.28;;;3.86;72.46
30708;BME280;17458;48.958;8.284;2022-12-10T05:37:16;99342.81;;;4.10;72.31
30708;BME280;17458;48.958;8.284;2022-12-10T05:40:00;99353.41;;;3.97;72.39
30708;BME280;17458;48.958;8.284;2022-12-10T05:42:44;99361.84;;;4.20;72.36
30708;BME280;17458;48.958;8.284;2022-12-10T05:45:28;99359.22;;;4.20;71.38
30708;BME280;17458;48.958;8.284;2022-12-10T05:48:14;99358.94;;;4.01;72.36
30708;BME280;17458;48.958;8.284;2022-12-10T05:51:11;99356.13;;;4.13;72.77
30708;BME280;17458;48.958;8.284;2022-12-10T05:53:56;99359.38;;;3.79;72.81
30708;BME280;17458;48.958;8.284;2022-12-10T05:56:41;99363.00;;;3.81;72.94
30708;BME280;17458;48.958;8.284;2022-12-10T05:59:25;99359.75;;;4.00;72.99
30708;BME280;17458;48.958;8.284;2022-12-10T06:02:09;99354.94;;;4.22;71.86
30708;BME280;17458;48.958;8.284;2022-12-10T06:04:53;99354.31;;;4.12;72.29
30708;BME280;17458;48.958;8.284;2022-12-10T06:07:37;99362.38;;;4.30;71.75
30708;BME280;17458;48.958;8.284;2022-12-10T06:10:20;99369.88;;;3.94;72.73
30708;BME280;17458;48.958;8.284;2022-12-10T06:13:05;99373.16;;;3.90;72.50
30708;BME280;17458;48.958;8.284;2022-12-10T06:15:49;99375.88;;;3.91;72.73
30708;BME280;17458;48.958;8.284;2022-12-10T06:18:33;99373.88;;;3.87;72.63
30708;BME280;17458;48.958;8.284;2022-12-10T06:21:19;99375.31;;;3.97;72.33
30708;BME280;17458;48.958;8.284;2022-12-10T06:24:03;99382.78;;;4.19;72.17
30708;BME280;17458;48.958;8.284;2022-12-10T06:26:47;99392.25;;;3.87;72.72
30708;BME280;17458;48.958;8.284;2022-12-10T06:29:31;99394.75;;;3.71;73.18
30708;BME280;17458;48.958;8.284;2022-12-10T06:32:15;99397.41;;;3.86;72.22
30708;BME280;17458;48.958;8.284;2022-12-10T06:34:58;99407.88;;;4.43;70.57
30708;BME280;17458;48.958;8.284;2022-12-10T06:37:42;99415.47;;;4.53;70.06
30708;BME280;17458;48.958;8.284;2022-12-10T06:40:26;99421.34;;;4.49;70.40
30708;BME280;17458;48.958;8.284;2022-12-10T06:43:10;99423.34;;;4.24;70.25
30708;BME280;17458;48.958;8.284;2022-12-10T06:45:54;99430.41;;;4.10;70.74
30708;BME280;17458;48.958;8.284;2022-12-10T06:48:38;99429.06;;;4.17;70.81
30708;BME280;17458;48.958;8.284;2022-12-10T06:51:22;99430.63;;;4.43;69.77
30708;BME280;17458;48.958;8.284;2022-12-10T06:54:06;99430.16;;;4.20;70.22
30708;BME280;17458;48.958;8.284;2022-12-10T06:56:50;99435.84;;;4.13;69.78
30708;BME280;17458;48.958;8.284;2022-12-10T06:59:34;99438.78;;;4.18;70.02
30708;BME280;17458;48.958;8.284;2022-12-10T07:02:19;99440.09;;;3.97;71.06
30708;BME280;17458;48.958;8.284;2022-12-10T07:05:03;99438.09;;;4.07;70.15
30708;BME280;17458;48.958;8.284;2022-12-10T07:07:47;99440.75;;;4.22;69.82
30708;BME280;17458;48.958;8.284;2022-12-10T07:10:31;99433.59;;;4.05;70.01
30708;BME280;17458;48.958;8.284;2022-12-10T07:13:15;99438.34;;;3.82;70.44
30708;BME280;17458;48.958;8.284;2022-12-10T07:15:59;99441.13;;;4.13;70.03
30708;BME280;17458;48.958;8.284;2022-12-10T07:18:43;99442.38;;;4.05;70.53
30708;BME280;17458;48.958;8.284;2022-12-10T07:21:31;99438.91;;;3.91;70.35
30708;BME280;17458;48.958;8.284;2022-12-10T07:24:18;99450.72;;;4.13;70.18
30708;BME280;17458;48.958;8.284;2022-12-10T07:27:05;99451.06;;;4.04;70.47
30708;BME280;17458;48.958;8.284;2022-12-10T07:29:49;99461.88;;;3.81;71.03
30708;BME280;17458;48.958;8.284;2022-12-10T07:32:33;99465.84;;;4.02;70.35
30708;BME280;17458;48.958;8.284;2022-12-10T07:35:17;99469.13;;;4.27;70.19
30708;BME280;17458;48.958;8.284;2022-12-10T07:38:01;99475.63;;;4.05;70.77
30708;BME280;17458;48.958;8.284;2022-12-10T07:40:45;99478.91;;;4.15;69.72
30708;BME280;17458;48.958;8.284;2022-12-10T07:43:30;99480.22;;;4.09;69.76
30708;BME280;17458;48.958;8.284;2022-12-10T07:46:23;99481.47;;;4.43;69.09
30708;BME280;17458;48.958;8.284;2022-12-10T07:49:07;99488.06;;;4.51;69.53
30708;BME280;17458;48.958;8.284;2022-12-10T07:51:52;99480.53;;;4.13;69.47
30708;BME280;17458;48.958;8.284;2022-12-10T07:54:36;99484.50;;;4.07;69.22
30708;BME280;17458;48.958;8.284;2022-12-10T07:57:20;99484.84;;;3.98;70.01
30708;BME280;17458;48.958;8.284;2022-12-10T08:00:04;99479.28;;;3.93;70.31
30708;BME280;17458;48.958;8.284;2022-12-10T08:02:55;99486.50;;;4.11;69.55
30708;BME280;17458;48.958;8.284;2022-12-10T08:05:41;99487.69;;;4.16;69.84
30708;BME280;17458;48.958;8.284;2022-12-10T08:08:25;99497.75;;;4.23;69.59
30708;BME280;17458;48.958;8.284;2022-12-10T08:11:10;99493.97;;;4.33;68.63
30708;BME280;17458;48.958;8.284;2022-12-10T08:13:55;99495.69;;;4.32;68.51
30708;BME280;17458;48.958;8.284;2022-12-10T08:16:39;99481.88;;;4.07;68.87
30708;BME280;17458;48.958;8.284;2022-12-10T08:19:23;99494.56;;;4.14;69.16
30708;BME280;17458;48.958;8.284;2022-12-10T08:22:07;99497.72;;;4.08;69.17
30708;BME280;17458;48.958;8.284;2022-12-10T08:24:51;99492.31;;;4.20;69.18
30708;BME280;17458;48.958;8.284;2022-12-10T08:27:35;99506.56;;;4.53;68.50
30708;BME280;17458;48.958;8.284;2022-12-10T08:30:19;99519.47;;;4.06;69.20
30708;BME280;17458;48.958;8.284;2022-12-10T08:33:03;99505.16;;;4.15;69.51
30708;BME280;17458;48.958;8.284;2022-12-10T08:35:47;99515.47;;;4.55;67.97
30708;BME280;17458;48.958;8.284;2022-12-10T08:38:32;99514.09;;;4.47;68.07
30708;BME280;17458;48.958;8.284;2022-12-10T08:41:19;99519.88;;;4.41;68.56
30708;BME280;17458;48.958;8.284;2022-12-10T08:44:03;99516.53;;;4.29;68.38
30708;BME280;17458;48.958;8.284;2022-12-10T08:46:47;99518.06;;;4.40;68.24
30708;BME280;17458;48.958;8.284;2022-12-10T08:49:31;99522.81;;;4.46;67.24
30708;BME280;17458;48.958;8.284;2022-12-10T08:52:15;99523.81;;;4.48;67.61
30708;BME280;17458;48.958;8.284;2022-12-10T08:54:59;99529.31;;;4.52;67.32
30708;BME280;17458;48.958;8.284;2022-12-10T08:57:43;99529.03;;;4.18;69.14
30708;BME280;17458;48.958;8.284;2022-12-10T09:00:27;99533.56;;;4.21;69.00
30708;BME280;17458;48.958;8.284;2022-12-10T09:03:12;99530.78;;;4.33;68.14
30708;BME280;17458;48.958;8.284;2022-12-10T09:05:56;99536.94;;;4.33;68.19
30708;BME280;17458;48.958;8.284;2022-12-10T09:08:40;99541.56;;;4.52;67.99
30708;BME280;17458;48.958;8.284;2022-12-10T09:11:31;99533.34;;;4.60;67.29
30708;BME280;17458;48.958;8.284;2022-12-10T09:14:15;99534.78;;;4.55;67.33
30708;BME280;17458;48.958;8.284;2022-12-10T09:16:59;99546.78;;;4.37;66.90
30708;BME280;17458;48.958;8.284;2022-12-10T09:19:46;99546.63;;;4.34;67.42
30708;BME280;17458;48.958;8.284;2022-12-10T09:22:31;99549.19;;;4.47;66.85
30708;BME280;17458;48.958;8.284;2022-12-10T09:25:15;99561.69;;;4.51;66.83
30708;BME280;17458;48.958;8.284;2022-12-10T09:28:00;99559.78;;;4.34;66.88
30708;BME280;17458;48.958;8.284;2022-12-10T09:30:44;99558.97;;;4.50;66.76
30708;BME280;17458;48.958;8.284;2022-12-10T09:33:28;99560.06;;;4.53;67.38
30708;BME280;17458;48.958;8.284;2022-12-10T09:36:13;99567.78;;;4.65;66.67
30708;BME280;17458;48.958;8.284;2022-12-10T09:38:58;99572.59;;;4.57;66.58
30708;BME280;17458;48.958;8.284;2022-12-10T09:47:41;99570.41;;;4.22;66.90
30708;BME280;17458;48.958;8.284;2022-12-10T09:50:42;99572.53;;;4.00;67.73
30708;BME280;17458;48.958;8.284;2022-12-10T09:53:29;99559.63;;;4.18;67.98
30708;BME280;17458;48.958;8.284;2022-12-10T09:56:23;99558.50;;;4.42;66.65
30708;BME280;17458;48.958;8.284;2022-12-10T09:59:36;99572.06;;;4.35;67.03
30708;BME280;17458;48.958;8.284;2022-12-10T10:02:24;99567.72;;;4.36;67.12
30708;BME280;17458;48.958;8.284;2022-12-10T10:05:21;99573.63;;;4.32;66.21
30708;BME280;17458;48.958;8.284;2022-12-10T10:08:29;99570.47;;;4.52;66.77
30708;BME280;17458;48.958;8.284;2022-12-10T10:11:21;99572.84;;;4.47;65.56
30708;BME280;17458;48.958;8.284;2022-12-10T10:14:24;99568.94;;;4.55;66.29
30708;BME280;17458;48.958;8.284;2022-12-10T10:17:21;99580.50;;;4.87;65.56
30708;BME280;17458;48.958;8.284;2022-12-10T10:20:07;99573.84;;;4.64;64.82
30708;BME280;17458;48.958;8.284;2022-12-10T10:22:53;99569.28;;;4.89;64.40
30708;BME280;17458;48.958;8.284;2022-12-10T10:25:39;99571.06;;;4.76;64.99
30708;BME280;17458;48.958;8.284;2022-12-10T10:28:23;99570.50;;;4.67;64.79
30708;BME280;17458;48.958;8.284;2022-12-10T10:31:25;99579.78;;;4.75;64.46
30708;BME280;17458;48.958;8.284;2022-12-10T10:34:17;99582.41;;;4.32;65.93
30708;BME280;17458;48.958;8.284;2022-12-10T10:37:03;99576.13;;;4.58;66.04
30708;BME280;17458;48.958;8.284;2022-12-10T10:39:49;99577.88;;;4.72;65.36
30708;BME280;17458;48.958;8.284;2022-12-10T10:42:39;99588.66;;;4.19;66.04
30708;BME280;17458;48.958;8.284;2022-12-10T10:45:31;99588.19;;;4.69;65.65
30708;BME280;17458;48.958;8.284;2022-12-10T10:48:19;99580.56;;;4.59;65.80
30708;BME280;17458;48.958;8.284;2022-12-10T10:53:59;99592.66;;;5.14;64.89
30708;BME280;17458;48.958;8.284;2022-12-10T10:56:43;99578.97;;;4.90;63.67
30708;BME280;17458;48.958;8.284;2022-12-10T10:59:33;99592.38;;;4.80;64.65
30708;BME280;17458;48.958;8.284;2022-12-10T11:02:33;99589.75;;;4.95;63.94
30708;BME280;17458;48.958;8.284;2022-12-10T11:05:24;99593.81;;;4.60;64.95
30708;BME280;17458;48.958;8.284;2022-12-10T11:08:16;99592.22;;;4.49;64.85
30708;BME280;17458;48.958;8.284;2022-12-10T11:11:04;99594.38;;;4.70;65.11
30708;BME280;17458;48.958;8.284;2022-12-10T11:13:49;99588.22;;;4.84;64.90
30708;BME280;17458;48.958;8.284;2022-12-10T11:16:33;99589.72;;;4.66;64.59
30708;BME280;17458;48.958;8.284;2022-12-10T11:19:23;99589.56;;;5.21;63.82
30708;BME280;17458;48.958;8.284;2022-12-10T11:22:30;99585.28;;;5.23;63.34
30708;BME280;17458;48.958;8.284;2022-12-10T11:25:14;99588.41;;;5.16;63.56
30708;BME280;17458;48.958;8.284;2022-12-10T11:28:08;99593.94;;;4.77;62.73
30708;BME280;17458;48.958;8.284;2022-12-10T11:37:15;99579.03;;;5.07;63.05
30708;BME280;17458;48.958;8.284;2022-12-10T11:40:23;99588.59;;;5.05;63.01
30708;BME280;17458;48.958;8.284;2022-12-10T11:47:01;99580.59;;;4.88;63.63
30708;BME280;17458;48.958;8.284;2022-12-10T11:50:17;99578.13;;;5.06;63.92
30708;BME280;17458;48.958;8.284;2022-12-10T11:53:24;99579.28;;;5.41;62.38
30708;BME280;17458;48.958;8.284;2022-12-10T11:56:44;99588.22;;;5.74;61.21
30708;BME280;17458;48.958;8.284;2022-12-10T11:59:46;99587.31;;;4.98;62.54
30708;BME280;17458;48.958;8.284;2022-12-10T12:05:45;99594.19;;;5.11;62.27
30708;BME280;17458;48.958;8.284;2022-12-10T12:14:48;99601.38;;;5.13;62.28
30708;BME280;17458;48.958;8.284;2022-12-10T12:17:41;99605.06;;;5.46;61.55
30708;BME280;17458;48.958;8.284;2022-12-10T12:20:33;99609.38;;;5.15;62.10
30708;BME280;17458;48.958;8.284;2022-12-10T12:26:37;99614.91;;;5.19;63.38
30708;BME280;17458;48.958;8.284;2022-12-10T12:29:30;99611.31;;;5.48;61.04
30708;BME280;17458;48.958;8.284;2022-12-10T12:35:09;99613.78;;;5.45;61.43
30708;BME280;17458;48.958;8.284;2022-12-10T12:38:00;99609.91;;;5.24;61.58
30708;BME280;17458;48.958;8.284;2022-12-10T12:40:52;99617.44;;;5.03;62.15
30708;BME280;17458;48.958;8.284;2022-12-10T12:44:17;99623.88;;;5.23;61.21
30708;BME280;17458;48.958;8.284;2022-12-10T12:47:22;99622.22;;;5.40;61.20
30708;BME280;17458;48.958;8.284;2022-12-10T12:53:29;99630.91;;;5.68;61.54
30708;BME280;17458;48.958;8.284;2022-12-10T12:56:50;99634.03;;;5.46;60.94
30708;BME280;17458;48.958;8.284;2022-12-10T13:00:03;99632.03;;;5.27;61.77
30708;BME280;17458;48.958;8.284;2022-12-10T13:02:53;99636.59;;;5.01;61.44
30708;BME280;17458;48.958;8.284;2022-12-10T13:05:39;99637.03;;;5.23;61.85
30708;BME280;17458;48.958;8.284;2022-12-10T13:08:27;99639.56;;;5.51;60.69
30708;BME280;17458;48.958;8.284;2022-12-10T13:17:01;99648.75;;;5.43;61.30
30708;BME280;17458;48.958;8.284;2022-12-10T13:19:46;99647.56;;;5.38;60.85
30708;BME280;17458;48.958;8.284;2022-12-10T13:22:40;99657.16;;;5.52;61.03
30708;BME280;17458;48.958;8.284;2022-12-10T13:25:58;99648.00;;;5.60;61.17
30708;BME280;17458;48.958;8.284;2022-12-10T13:28:50;99663.91;;;5.32;61.21
30708;BME280;17458;48.958;8.284;2022-12-10T13:31:36;99664.53;;;5.13;61.01
30708;BME280;17458;48.958;8.284;2022-12-10T13:34:34;99664.00;;;5.19;62.04
30708;BME280;17458;48.958;8.284;2022-12-10T13:37:29;99671.53;;;4.70;62.85
30708;BME280;17458;48.958;8.284;2022-12-10T13:43:40;99674.34;;;5.45;61.00
30708;BME280;17458;48.958;8.284;2022-12-10T13:58:48;99699.69;;;5.28;59.88
30708;BME280;17458;48.958;8.284;2022-12-10T14:02:00;99702.75;;;5.51;59.33
30708;BME280;17458;48.958;8.284;2022-12-10T14:07:57;99713.28;;;5.36;59.45
30708;BME280;17458;48.958;8.284;2022-12-10T14:10:46;99705.47;;;5.23;60.10
30708;BME280;17458;48.958;8.284;2022-12-10T14:13:43;99711.28;;;5.17;60.10
30708;BME280;17458;48.958;8.284;2022-12-10T14:16:30;99718.44;;;5.05;59.50
30708;BME280;17458;48.958;8.284;2022-12-10T14:19:16;99716.63;;;5.33;58.55
30708;BME280;17458;48.958;8.284;2022-12-10T14:22:08;99716.09;;;5.54;58.78
30708;BME280;17458;48.958;8.284;2022-12-10T14:25:03;99725.63;;;5.66;58.62
30708;BME280;17458;48.958;8.284;2022-12-10T14:27:52;99724.00;;;5.39;58.05
30708;BME280;17458;48.958;8.284;2022-12-10T14:30:45;99727.25;;;5.35;58.22
30708;BME280;17458;48.958;8.284;2022-12-10T14:33:29;99730.91;;;5.37;58.26
30708;BME280;17458;48.958;8.284;2022-12-10T14:36:26;99728.09;;;5.63;57.41
30708;BME280;17458;48.958;8.284;2022-12-10T14:39:21;99729.38;;;5.55;57.84
30708;BME280;17458;48.958;8.284;2022-12-10T14:42:12;99730.38;;;5.57;57.94
30708;BME280;17458;48.958;8.284;2022-12-10T14:45:02;99736.09;;;5.65;57.89
30708;BME280;17458;48.958;8.284;2022-12-10T14:47:47;99727.75;;;5.72;57.38
30708;BME280;17458;48.958;8.284;2022-12-10T14:50:32;99734.53;;;5.83;57.00
30708;BME280;17458;48.958;8.284;2022-12-10T14:53:24;99739.63;;;5.95;56.94
30708;BME280;17458;48.958;8.284;2022-12-10T14:56:11;99740.34;;;6.07;57.47
30708;BME280;17458;48.958;8.284;2022-12-10T14:59:12;99741.66;;;5.99;56.60
30708;BME280;17458;48.958;8.284;2022-12-10T15:01:59;99748.13;;;5.89;56.60
30708;BME280;17458;48.958;8.284;2022-12-10T15:04:47;99750.47;;;5.99;56.97
30708;BME280;17458;48.958;8.284;2022-12-10T15:07:33;99752.34;;;5.87;56.81
30708;BME280;17458;48.958;8.284;2022-12-10T15:10:24;99756.09;;;5.91;56.85
30708;BME280;17458;48.958;8.284;2022-12-10T15:13:19;99758.06;;;6.10;56.81
30708;BME280;17458;48.958;8.284;2022-12-10T15:16:06;99763.16;;;5.92;57.17
30708;BME280;17458;48.958;8.284;2022-12-10T15:19:16;99759.06;;;5.82;57.17
30708;BME280;17458;48.958;8.284;2022-12-10T15:22:17;99755.81;;;5.86;56.66
30708;BME280;17458;48.958;8.284;2022-12-10T15:25:14;99756.63;;;5.70;56.79
30708;BME280;17458;48.958;8.284;2022-12-10T15:28:03;99750.44;;;5.70;56.67
30708;BME280;17458;48.958;8.284;2022-12-10T15:30:47;99766.59;;;5.76;57.16
30708;BME280;17458;48.958;8.284;2022-12-10T15:33:38;99767.50;;;5.62;57.56
30708;BME280;17458;48.958;8.284;2022-12-10T15:39:21;99758.44;;;5.72;58.08
30708;BME280;17458;48.958;8.284;2022-12-10T15:42:08;99765.53;;;5.73;57.72
30708;BME280;17458;48.958;8.284;2022-12-10T15:44:56;99768.41;;;5.77;58.21
30708;BME280;17458;48.958;8.284;2022-12-10T15:47:41;99777.06;;;5.60;59.34
30708;BME280;17458;48.958;8.284;2022-12-10T15:50:26;99772.22;;;5.53;59.68
30708;BME280;17458;48.958;8.284;2022-12-10T15:53:12;99768.50;;;5.64;60.00
30708;BME280;17458;48.958;8.284;2022-12-10T15:55:56;99770.59;;;5.69;59.16
30708;BME280;17458;48.958;8.284;2022-12-10T15:58:40;99771.72;;;5.73;59.90
30708;BME280;17458;48.958;8.284;2022-12-10T16:01:25;99781.25;;;5.71;60.10
30708;BME280;17458;48.958;8.284;2022-12-10T16:04:09;99769.50;;;5.66;60.53
30708;BME280;17458;48.958;8.284;2022-12-10T16:06:53;99772.63;;;5.59;60.47
30708;BME280;17458;48.958;8.284;2022-12-10T16:09:37;99780.31;;;5.56;60.29
30708;BME280;17458;48.958;8.284;2022-12-10T16:12:21;99788.56;;;5.62;59.29
30708;BME280;17458;48.958;8.284;2022-12-10T16:15:07;99784.41;;;5.65;60.25